createdAt,value
2023-03-20T00:00:18.630Z,98240.41
2023-03-20T00:02:47.715Z,98237.78
2023-03-20T00:05:22.039Z,98246.06
2023-03-20T00:07:52.801Z,98246.84
2023-03-20T00:10:28.066Z,98250.81
2023-03-20T00:12:58.325Z,98251.59
2023-03-20T00:15:32.815Z,98244.28
2023-03-20T00:18:02.022Z,98252.81
2023-03-20T00:20:31.764Z,98245.66
2023-03-20T00:23:00.806Z,98244.38
2023-03-20T00:25:32.702Z,98247.16
2023-03-20T00:28:01.995Z,98248.63
2023-03-20T00:30:33.544Z,98242.34
2023-03-20T00:33:02.560Z,98258.44
2023-03-20T00:35:33.445Z,98247.94
2023-03-20T00:38:02.549Z,98251.91
2023-03-20T00:40:33.452Z,98267.16
2023-03-20T00:43:04.889Z,98253.69
2023-03-20T00:45:36.847Z,98261.66
2023-03-20T00:48:07.776Z,98254.13
2023-03-20T00:50:36.787Z,98254.25
2023-03-20T00:53:11.204Z,98249.13
2023-03-20T00:55:42.193Z,98243.50
2023-03-20T00:58:12.396Z,98241.22
2023-03-20T01:00:43.851Z,98234.44
2023-03-20T01:03:18.415Z,98241.66
2023-03-20T01:05:52.192Z,98238.91
2023-03-20T01:08:23.477Z,98235.16
2023-03-20T01:10:56.922Z,98242.69
2023-03-20T01:13:29.456Z,98244.06
2023-03-20T01:15:59.917Z,98234.72
2023-03-20T01:18:29.277Z,98236.97
2023-03-20T01:20:59.191Z,98240.34
2023-03-20T01:23:28.643Z,98240.19
2023-03-20T01:25:59.094Z,98243.78
2023-03-20T01:28:29.715Z,98241.00
2023-03-20T01:31:00.201Z,98233.25
2023-03-20T01:33:30.931Z,98235.94
2023-03-20T01:36:00.221Z,98230.69
2023-03-20T01:38:30.056Z,98231.34
2023-03-20T01:41:07.348Z,98230.59
2023-03-20T01:43:40.211Z,98230.59
2023-03-20T01:46:21.454Z,98227.75
2023-03-20T01:49:30.898Z,98237.56
2023-03-20T01:52:04.913Z,98233.50
2023-03-20T01:54:39.100Z,98236.59
2023-03-20T01:57:19.683Z,98237.47
2023-03-20T01:59:53.186Z,98230.22
2023-03-20T02:02:27.304Z,98236.75
2023-03-20T02:05:03.487Z,98240.00
2023-03-20T02:07:36.123Z,98241.59
2023-03-20T02:10:15.317Z,98242.38
2023-03-20T02:13:05.521Z,98240.66
2023-03-20T02:16:04.924Z,98238.94
2023-03-20T02:18:50.589Z,98236.59
2023-03-20T02:22:18.783Z,98234.19
2023-03-20T02:25:29.220Z,98237.34
2023-03-20T02:28:44.108Z,98246.13
2023-03-20T02:31:46.607Z,98235.03
2023-03-20T02:34:48.625Z,98236.59
2023-03-20T02:37:57.574Z,98236.91
2023-03-20T02:40:38.480Z,98240.66
2023-03-20T02:43:15.931Z,98235.69
2023-03-20T02:45:56.595Z,98230.81
2023-03-20T02:48:47.504Z,98229.97
2023-03-20T02:51:27.042Z,98224.28
2023-03-20T02:54:08.091Z,98216.66
2023-03-20T02:56:49.321Z,98221.41
2023-03-20T02:59:30.084Z,98229.63
2023-03-20T03:02:06.766Z,98229.50
2023-03-20T03:04:39.711Z,98241.03
2023-03-20T03:07:14.394Z,98251.22
2023-03-20T03:09:52.546Z,98246.13
2023-03-20T03:12:24.940Z,98247.03
2023-03-20T03:14:56.544Z,98240.47
2023-03-20T03:17:29.606Z,98257.31
2023-03-20T03:20:02.963Z,98251.47
2023-03-20T03:22:34.829Z,98250.72
2023-03-20T03:25:06.591Z,98249.19
2023-03-20T03:27:40.468Z,98250.06
2023-03-20T03:30:17.029Z,98242.59
2023-03-20T03:32:50.602Z,98251.47
2023-03-20T03:35:23.530Z,98252.78
2023-03-20T03:38:00.419Z,98261.38
2023-03-20T03:40:37.120Z,98257.53
2023-03-20T03:43:15.715Z,98258.94
2023-03-20T03:45:51.502Z,98260.19
2023-03-20T03:48:25.024Z,98258.34
2023-03-20T03:50:58.703Z,98267.91
2023-03-20T03:53:33.075Z,98265.56
2023-03-20T03:56:09.532Z,98265.50
2023-03-20T03:58:42.042Z,98264.66
2023-03-20T04:01:13.959Z,98267.88
2023-03-20T04:03:49.664Z,98269.16
2023-03-20T04:06:20.343Z,98268.84
2023-03-20T04:08:49.371Z,98265.34
2023-03-20T04:11:22.588Z,98270.91
2023-03-20T04:13:53.511Z,98266.53
2023-03-20T04:16:25.851Z,98271.78
2023-03-20T04:18:56.549Z,98280.56
2023-03-20T04:21:25.900Z,98281.75
2023-03-20T04:23:54.919Z,98289.47
2023-03-20T04:26:27.304Z,98282.97
2023-03-20T04:28:56.460Z,98286.72
2023-03-20T04:31:54.478Z,98286.53
2023-03-20T04:34:58.900Z,98288.41
2023-03-20T04:37:37.319Z,98289.94
2023-03-20T04:40:10.742Z,98283.25
2023-03-20T04:42:44.951Z,98278.34
2023-03-20T04:45:14.057Z,98284.13
2023-03-20T04:47:43.835Z,98272.56
2023-03-20T04:50:15.568Z,98287.97
2023-03-20T04:52:45.736Z,98293.13
2023-03-20T04:55:16.133Z,98291.50
2023-03-20T04:57:47.034Z,98292.34
2023-03-20T05:00:18.521Z,98293.34
2023-03-20T05:02:47.486Z,98292.63
2023-03-20T05:05:18.086Z,98307.53
2023-03-20T05:07:47.420Z,98316.63
2023-03-20T05:10:22.836Z,98300.25
2023-03-20T05:13:01.486Z,98314.72
2023-03-20T05:15:49.044Z,98308.88
2023-03-20T05:18:29.566Z,98312.78
2023-03-20T05:21:17.501Z,98317.09
2023-03-20T05:24:05.812Z,98323.31
2023-03-20T05:26:46.566Z,98326.88
2023-03-20T05:29:48.995Z,98329.38
2023-03-20T05:32:30.339Z,98335.38
2023-03-20T05:35:23.147Z,98336.66
2023-03-20T05:38:00.868Z,98340.06
2023-03-20T05:40:50.431Z,98332.13
2023-03-20T05:43:19.292Z,98335.44
2023-03-20T05:46:27.772Z,98343.72
2023-03-20T05:49:15.573Z,98346.44
2023-03-20T05:52:10.367Z,98353.72
2023-03-20T05:54:44.605Z,98355.31
2023-03-20T05:57:36.157Z,98358.44
2023-03-20T06:00:41.223Z,98352.06
2023-03-20T06:03:37.101Z,98362.16
2023-03-20T06:06:14.863Z,98358.59
2023-03-20T06:08:48.341Z,98361.84
2023-03-20T06:11:18.809Z,98366.72
2023-03-20T06:13:47.958Z,98364.72
2023-03-20T06:16:16.974Z,98373.53
2023-03-20T06:18:47.772Z,98377.56
2023-03-20T06:21:19.308Z,98371.69
2023-03-20T06:23:48.442Z,98370.59
2023-03-20T06:26:17.421Z,98371.09
2023-03-20T06:28:59.359Z,98371.03
2023-03-20T06:31:28.416Z,98373.50
2023-03-20T06:33:58.787Z,98380.03
2023-03-20T06:36:28.268Z,98388.91
2023-03-20T06:39:04.111Z,98377.81
2023-03-20T06:41:34.969Z,98380.28
2023-03-20T06:44:08.546Z,98385.91
2023-03-20T06:46:57.849Z,98381.03
2023-03-20T06:49:28.899Z,98373.88
2023-03-20T06:51:59.397Z,98371.50
2023-03-20T06:54:31.590Z,98373.16
2023-03-20T06:57:03.604Z,98378.75
2023-03-20T06:59:32.602Z,98379.94
2023-03-20T07:02:01.615Z,98377.94
2023-03-20T07:04:32.037Z,98382.69
2023-03-20T07:07:05.631Z,98385.09
2023-03-20T07:09:37.298Z,98387.53
2023-03-20T07:12:11.158Z,98394.31
2023-03-20T07:14:40.487Z,98388.25
2023-03-20T07:17:14.540Z,98392.09
2023-03-20T07:19:45.009Z,98397.47
2023-03-20T07:22:22.865Z,98396.13
2023-03-20T07:24:53.488Z,98395.78
2023-03-20T07:27:27.177Z,98392.50
2023-03-20T07:29:57.867Z,98401.28
2023-03-20T07:32:27.092Z,98404.34
2023-03-20T07:34:58.057Z,98407.38
2023-03-20T07:37:27.548Z,98408.88
2023-03-20T07:40:03.860Z,98403.81
2023-03-20T07:42:40.356Z,98409.59
2023-03-20T07:45:16.817Z,98407.56
2023-03-20T07:47:48.665Z,98419.00
2023-03-20T07:50:20.125Z,98424.56
2023-03-20T07:52:49.526Z,98418.19
2023-03-20T07:55:19.202Z,98426.66
2023-03-20T07:57:51.102Z,98427.88
2023-03-20T08:00:21.666Z,98420.53
2023-03-20T08:02:50.953Z,98435.44
2023-03-20T08:05:21.305Z,98434.31
2023-03-20T08:07:50.728Z,98431.41
2023-03-20T08:10:20.048Z,98428.91
2023-03-20T08:12:48.942Z,98425.72
2023-03-20T08:15:18.126Z,98433.00
2023-03-20T08:17:47.853Z,98427.25
2023-03-20T08:20:17.963Z,98438.66
2023-03-20T08:22:49.684Z,98436.81
2023-03-20T08:25:18.837Z,98433.13
2023-03-20T08:27:47.888Z,98438.63
2023-03-20T08:30:17.385Z,98442.97
2023-03-20T08:32:46.528Z,98441.16
2023-03-20T08:35:31.821Z,98437.09
2023-03-20T08:38:03.736Z,98440.06
2023-03-20T08:40:33.117Z,98440.25
2023-03-20T08:43:02.108Z,98444.41
2023-03-20T08:45:31.036Z,98446.09
2023-03-20T08:47:59.961Z,98441.66
2023-03-20T08:50:28.949Z,98449.19
2023-03-20T08:52:57.817Z,98451.75
2023-03-20T08:55:28.164Z,98448.88
2023-03-20T08:57:57.554Z,98445.31
2023-03-20T09:00:27.736Z,98448.63
2023-03-20T09:02:56.829Z,98453.34
2023-03-20T09:05:26.220Z,98449.63
2023-03-20T09:07:55.330Z,98456.84
2023-03-20T09:10:24.358Z,98450.13
2023-03-20T09:12:54.638Z,98451.06
2023-03-20T09:15:23.586Z,98449.16
2023-03-20T09:17:52.610Z,98445.03
2023-03-20T09:20:21.844Z,98450.59
2023-03-20T09:22:51.033Z,98444.00
2023-03-20T09:25:22.702Z,98450.09
2023-03-20T09:27:55.373Z,98450.09
2023-03-20T09:30:25.579Z,98446.63
2023-03-20T09:32:54.599Z,98453.28
2023-03-20T09:35:23.586Z,98444.66
2023-03-20T09:37:52.846Z,98451.22
2023-03-20T09:40:29.030Z,98452.41
2023-03-20T09:43:11.179Z,98445.47
2023-03-20T09:45:51.525Z,98441.09
2023-03-20T09:48:32.182Z,98438.84
2023-03-20T09:51:13.210Z,98438.22
2023-03-20T09:53:46.367Z,98444.25
2023-03-20T09:56:20.524Z,98444.97
2023-03-20T09:58:56.141Z,98445.16
2023-03-20T10:01:28.853Z,98444.56
2023-03-20T10:04:01.557Z,98439.59
2023-03-20T10:06:30.644Z,98437.72
2023-03-20T10:08:59.609Z,98437.56
2023-03-20T10:12:06.769Z,98443.13
2023-03-20T10:14:52.880Z,98441.88
2023-03-20T10:17:41.093Z,98427.47
2023-03-20T10:20:23.533Z,98434.19
2023-03-20T10:22:56.986Z,98427.06
2023-03-20T10:25:32.397Z,98437.91
2023-03-20T10:28:04.354Z,98425.56
2023-03-20T10:31:01.358Z,98421.53
2023-03-20T10:33:49.744Z,98426.34
2023-03-20T10:36:41.459Z,98422.50
2023-03-20T10:39:22.006Z,98425.81
2023-03-20T10:41:59.954Z,98424.72
2023-03-20T10:44:39.208Z,98425.81
2023-03-20T10:47:15.292Z,98423.13
2023-03-20T10:49:51.603Z,98422.94
2023-03-20T10:52:26.391Z,98420.78
2023-03-20T10:55:01.565Z,98428.25
2023-03-20T10:57:35.446Z,98419.50
2023-03-20T11:00:12.943Z,98411.34
2023-03-20T11:02:43.373Z,98415.53
2023-03-20T11:05:24.938Z,98421.09
2023-03-20T11:08:03.635Z,98414.22
2023-03-20T11:10:36.358Z,98412.69
2023-03-20T11:13:19.423Z,98404.00
2023-03-20T11:15:48.426Z,98404.78
2023-03-20T11:18:18.691Z,98398.44
2023-03-20T11:20:52.413Z,98399.69
2023-03-20T11:23:30.274Z,98399.56
2023-03-20T11:26:02.343Z,98401.00
2023-03-20T11:28:36.878Z,98397.53
2023-03-20T11:31:17.294Z,98407.34
2023-03-20T11:33:53.120Z,98402.25
2023-03-20T11:36:28.083Z,98401.28
2023-03-20T11:39:07.328Z,98393.00
2023-03-20T11:41:42.285Z,98392.47
2023-03-20T11:44:27.762Z,98392.50
2023-03-20T11:46:58.850Z,98388.78
2023-03-20T11:49:29.351Z,98393.56
2023-03-20T11:52:03.608Z,98388.13
2023-03-20T11:54:32.598Z,98387.97
2023-03-20T11:57:02.021Z,98385.03
2023-03-20T11:59:34.069Z,98387.56
2023-03-20T12:02:05.903Z,98386.19
2023-03-20T12:04:42.123Z,98370.59
2023-03-20T12:07:17.883Z,98370.59
2023-03-20T12:09:50.771Z,98372.94
2023-03-20T12:12:41.059Z,98371.41
2023-03-20T12:15:20.198Z,98373.84
2023-03-20T12:17:56.826Z,98370.34
2023-03-20T12:20:36.542Z,98366.72
2023-03-20T12:23:14.881Z,98356.84
2023-03-20T12:25:53.137Z,98352.69
2023-03-20T12:28:29.124Z,98351.69
2023-03-20T12:31:13.829Z,98351.75
2023-03-20T12:33:51.443Z,98348.94
2023-03-20T12:36:31.929Z,98346.63
2023-03-20T12:39:03.014Z,98347.06
2023-03-20T12:41:42.199Z,98344.47
2023-03-20T12:44:33.355Z,98338.97
2023-03-20T12:47:19.453Z,98338.19
2023-03-20T12:49:58.173Z,98337.81
2023-03-20T12:52:45.955Z,98339.34
2023-03-20T12:55:32.559Z,98338.56
2023-03-20T12:58:20.317Z,98339.72
2023-03-20T13:01:00.919Z,98335.09
2023-03-20T13:03:44.862Z,98332.91
2023-03-20T13:06:21.091Z,98326.19
2023-03-20T13:09:34.436Z,98321.31
2023-03-20T13:12:12.988Z,98330.47
2023-03-20T13:14:48.772Z,98318.69
2023-03-20T13:17:28.355Z,98321.81
2023-03-20T13:20:22.234Z,98322.56
2023-03-20T13:23:04.608Z,98314.84
2023-03-20T13:26:14.957Z,98315.84
2023-03-20T13:28:56.638Z,98315.97
2023-03-20T13:31:42.236Z,98318.69
2023-03-20T13:34:26.084Z,98311.47
2023-03-20T13:37:23.323Z,98309.34
2023-03-20T13:40:05.954Z,98314.97
2023-03-20T13:42:43.931Z,98308.66
2023-03-20T13:45:32.356Z,98308.91
2023-03-20T13:48:10.770Z,98309.09
2023-03-20T13:50:47.093Z,98306.75
2023-03-20T13:53:29.863Z,98303.53
2023-03-20T13:56:09.774Z,98305.34
2023-03-20T13:59:03.756Z,98303.81
2023-03-20T14:01:47.225Z,98300.47
2023-03-20T14:04:20.061Z,98287.22
2023-03-20T14:06:56.262Z,98293.94
2023-03-20T14:09:32.691Z,98288.19
2023-03-20T14:12:07.360Z,98287.91
2023-03-20T14:14:47.432Z,98280.44
2023-03-20T14:17:22.482Z,98281.81
2023-03-20T14:19:52.427Z,98283.31
2023-03-20T14:22:24.274Z,98281.16
2023-03-20T14:24:58.981Z,98281.91
2023-03-20T14:27:43.826Z,98285.97
2023-03-20T14:30:42.784Z,98280.50
2023-03-20T14:33:31.174Z,98276.97
2023-03-20T14:36:23.373Z,98276.00
2023-03-20T14:39:07.675Z,98273.84
2023-03-20T14:41:53.090Z,98276.91
2023-03-20T14:44:33.486Z,98274.63
2023-03-20T14:47:12.970Z,98264.44
2023-03-20T14:49:55.306Z,98269.09
2023-03-20T14:52:42.202Z,98266.91
2023-03-20T14:55:35.405Z,98267.38
2023-03-20T14:58:46.855Z,98267.88
2023-03-20T15:01:20.517Z,98274.91
2023-03-20T15:03:57.232Z,98275.34
2023-03-20T15:06:29.367Z,98275.28
2023-03-20T15:09:02.284Z,98281.41
2023-03-20T15:11:31.820Z,98278.75
2023-03-20T15:14:03.665Z,98279.03
2023-03-20T15:16:35.956Z,98279.25
2023-03-20T15:19:19.240Z,98275.75
2023-03-20T15:21:50.644Z,98282.47
2023-03-20T15:24:24.150Z,98283.00
2023-03-20T15:26:55.998Z,98277.22
2023-03-20T15:29:25.411Z,98274.06
2023-03-20T15:32:12.816Z,98280.19
2023-03-20T15:34:47.451Z,98277.00
2023-03-20T15:37:19.219Z,98273.47
2023-03-20T15:39:52.062Z,98272.22
2023-03-20T15:42:24.322Z,98270.88
2023-03-20T15:44:55.931Z,98279.16
2023-03-20T15:47:26.721Z,98275.09
2023-03-20T15:50:00.192Z,98279.50
2023-03-20T15:52:34.373Z,98267.31
2023-03-20T15:55:08.779Z,98273.03
2023-03-20T15:57:40.861Z,98268.25
2023-03-20T16:00:17.876Z,98273.00
2023-03-20T16:02:49.091Z,98270.88
2023-03-20T16:05:26.357Z,98266.78
2023-03-20T16:07:56.358Z,98282.16
2023-03-20T16:10:31.678Z,98283.97
2023-03-20T16:13:00.927Z,98281.91
2023-03-20T16:15:32.431Z,98278.69
2023-03-20T16:18:05.006Z,98273.56
2023-03-20T16:20:42.538Z,98275.53
2023-03-20T16:23:12.498Z,98274.75
2023-03-20T16:25:42.097Z,98273.69
2023-03-20T16:28:15.874Z,98272.78
2023-03-20T16:30:44.833Z,98273.97
2023-03-20T16:33:18.308Z,98267.78
2023-03-20T16:35:51.247Z,98273.41
2023-03-20T16:38:26.945Z,98277.91
2023-03-20T16:40:58.444Z,98272.88
2023-03-20T16:43:32.105Z,98277.22
2023-03-20T16:46:06.908Z,98279.13
2023-03-20T16:48:39.265Z,98277.34
2023-03-20T16:51:18.642Z,98290.06
2023-03-20T16:53:49.552Z,98293.84
2023-03-20T16:56:27.005Z,98286.25
2023-03-20T16:58:57.144Z,98299.97
2023-03-20T17:01:29.619Z,98297.78
2023-03-20T17:04:12.388Z,98295.75
2023-03-20T17:06:49.533Z,98288.78
2023-03-20T17:09:27.572Z,98304.38
2023-03-20T17:12:06.032Z,98299.69
2023-03-20T17:14:35.263Z,98293.47
2023-03-20T17:17:04.309Z,98298.03
2023-03-20T17:19:34.072Z,98307.50
2023-03-20T17:22:13.073Z,98309.53
2023-03-20T17:24:42.106Z,98307.47
2023-03-20T17:27:13.379Z,98314.19
2023-03-20T17:29:42.990Z,98306.22
2023-03-20T17:32:14.216Z,98307.31
2023-03-20T17:34:43.916Z,98308.81
2023-03-20T17:37:17.072Z,98313.84
2023-03-20T17:39:46.161Z,98317.03
2023-03-20T17:42:19.526Z,98311.91
2023-03-20T17:44:49.721Z,98314.91
2023-03-20T17:47:23.278Z,98320.56
2023-03-20T17:49:54.576Z,98311.13
2023-03-20T17:52:27.151Z,98315.63
2023-03-20T17:54:56.624Z,98314.91
2023-03-20T17:57:32.895Z,98314.41
2023-03-20T18:00:03.420Z,98315.03
2023-03-20T18:02:33.179Z,98313.06
2023-03-20T18:05:02.108Z,98320.41
2023-03-20T18:07:32.666Z,98327.63
2023-03-20T18:10:02.089Z,98325.53
2023-03-20T18:12:34.667Z,98320.78
2023-03-20T18:15:04.112Z,98319.63
2023-03-20T18:17:33.172Z,98323.59
2023-03-20T18:20:05.515Z,98327.19
2023-03-20T18:22:35.974Z,98322.75
2023-03-20T18:25:05.328Z,98330.50
2023-03-20T18:27:34.349Z,98328.69
2023-03-20T18:30:03.673Z,98324.63
2023-03-20T18:32:32.775Z,98327.03
2023-03-20T18:35:01.840Z,98325.00
2023-03-20T18:37:33.943Z,98331.69
2023-03-20T18:40:04.483Z,98330.59
2023-03-20T18:42:33.648Z,98329.44
2023-03-20T18:45:04.698Z,98326.19
2023-03-20T18:47:34.006Z,98337.47
2023-03-20T18:50:02.933Z,98330.25
2023-03-20T18:52:32.458Z,98329.88
2023-03-20T18:55:01.579Z,98338.50
2023-03-20T18:57:31.978Z,98339.38
2023-03-20T19:00:00.949Z,98335.44
2023-03-20T19:02:30.178Z,98330.97
2023-03-20T19:04:59.109Z,98325.69
2023-03-20T19:07:28.018Z,98328.09
2023-03-20T19:09:56.965Z,98335.09
2023-03-20T19:12:25.958Z,98327.06
2023-03-20T19:14:56.318Z,98323.97
2023-03-20T19:17:25.284Z,98332.19
2023-03-20T19:19:55.845Z,98332.41
2023-03-20T19:22:29.548Z,98341.38
2023-03-20T19:24:58.942Z,98338.31
2023-03-20T19:27:27.863Z,98333.91
2023-03-20T19:29:58.173Z,98338.19
2023-03-20T19:32:30.116Z,98347.16
2023-03-20T19:37:49.108Z,98343.75
2023-03-20T19:40:28.664Z,98334.16
2023-03-20T19:43:02.455Z,98342.66
2023-03-20T19:45:38.256Z,98344.84
2023-03-20T19:48:16.034Z,98343.25
2023-03-20T19:50:46.851Z,98338.06
2023-03-20T19:53:19.219Z,98337.47
2023-03-20T19:55:50.016Z,98347.84
2023-03-20T19:58:19.008Z,98344.66
2023-03-20T20:00:59.526Z,98343.59
2023-03-20T20:03:30.008Z,98350.25
2023-03-20T20:05:59.898Z,98351.16
2023-03-20T20:08:44.789Z,98354.06
2023-03-20T20:11:17.019Z,98355.19
2023-03-20T20:16:39.593Z,98350.00
2023-03-20T20:19:09.085Z,98355.34
2023-03-20T20:24:27.351Z,98354.88
2023-03-20T20:27:15.221Z,98345.91
2023-03-20T20:29:51.636Z,98346.91
2023-03-20T20:32:25.407Z,98343.75
2023-03-20T20:38:36.623Z,98341.81
2023-03-20T20:40:43.080Z,98348.41
2023-03-20T20:43:12.409Z,98339.72
2023-03-20T20:45:52.624Z,98347.03
2023-03-20T20:48:23.013Z,98351.13
2023-03-20T20:50:53.570Z,98351.09
2023-03-20T20:53:23.639Z,98346.69
2023-03-20T20:55:56.063Z,98346.38
2023-03-20T20:58:27.093Z,98347.63
2023-03-20T21:00:58.519Z,98342.44
2023-03-20T21:03:29.630Z,98342.50
2023-03-20T21:06:04.478Z,98349.00
2023-03-20T21:08:34.975Z,98347.84
2023-03-20T21:11:03.983Z,98350.66
2023-03-20T21:13:34.534Z,98351.47
2023-03-20T21:16:03.809Z,98347.91
2023-03-20T21:18:34.498Z,98349.47
2023-03-20T21:21:07.939Z,98350.59
2023-03-20T21:23:38.410Z,98359.41
2023-03-20T21:26:09.361Z,98360.19
2023-03-20T21:28:38.838Z,98359.03
2023-03-20T21:31:23.821Z,98355.06
2023-03-20T21:33:56.002Z,98350.66
2023-03-20T21:36:25.968Z,98353.09
2023-03-20T21:39:07.807Z,98349.13
2023-03-20T21:41:38.980Z,98350.34
2023-03-20T21:44:16.647Z,98355.56
2023-03-20T21:47:55.826Z,98356.34
2023-03-20T21:53:08.486Z,98369.53
2023-03-20T22:01:41.955Z,98365.16
2023-03-20T22:10:18.753Z,98371.53
2023-03-20T22:13:13.817Z,98376.34
2023-03-20T22:18:50.891Z,98381.94
2023-03-20T22:27:26.868Z,98381.94
2023-03-20T22:38:41.456Z,98372.72
2023-03-20T22:41:43.116Z,98368.31
2023-03-20T22:46:44.691Z,98359.47
2023-03-20T22:49:11.570Z,98367.44
2023-03-20T22:51:50.691Z,98362.63
2023-03-20T22:54:29.455Z,98372.13
2023-03-20T22:56:59.739Z,98367.31
2023-03-20T22:59:28.725Z,98365.72
2023-03-20T23:01:57.603Z,98364.91
2023-03-20T23:04:29.598Z,98366.47
2023-03-20T23:06:59.155Z,98365.31
2023-03-20T23:09:28.091Z,98360.91
2023-03-20T23:11:57.059Z,98364.84
2023-03-20T23:14:30.772Z,98363.97
2023-03-20T23:17:02.538Z,98367.19
2023-03-20T23:19:37.800Z,98362.41
2023-03-20T23:22:13.959Z,98359.31
2023-03-20T23:24:42.921Z,98366.50
2023-03-20T23:27:11.819Z,98364.19
2023-03-20T23:29:42.194Z,98367.41
2023-03-20T23:32:11.293Z,98366.59
2023-03-20T23:34:40.443Z,98363.41
2023-03-20T23:37:09.759Z,98364.94
2023-03-20T23:39:38.721Z,98367.31
2023-03-20T23:42:20.389Z,98363.34
2023-03-20T23:45:04.471Z,98361.72
2023-03-20T23:47:43.856Z,98356.94
2023-03-20T23:50:26.344Z,98354.59
2023-03-20T23:55:50.489Z,98356.97
2023-03-20T23:58:21.280Z,98359.84
